Pagrindinis puslapis
METAR-TAF:

METAR-TAF

Oro uostai :

Mitiga International Airport

Tripolis, Libija

platuma: 32-54N, ilguma: 13-17E, Aukštis: 11 m

METAR: trūkstamas

Laikas: 22:12 (20:12 UTC)

Prognozė

Ataskaita buvo paskelbta 33 valandos ir 12 minutes, ne 11:00 UTC
Prognozė galioja nuo 13 metu 12 UTC su 14 metu 12 UTC
Vėjas 10 kt iš Rytų/Šiaurės Rytų
Matomumas 10 km arba daugiau
nėra debesų žemiau 1500 m ir nėra kamuolinių lietaus debesų
Tapsmas
nuo 14 metu 00 UTC su 14 metu 02 UTC
Vėjas 2 kt nuo kintamojo kryptimis
Tapsmas
nuo 14 metu 10 UTC su 14 metu 12 UTC
Vėjas 10 kt iš Rytų/Šiaurės Rytų

TAF: HLLM 131100Z 1312/1412 06010KT CAVOK BECMG 1400/1402 VRB02KT BECMG 1410/1412 06010KT

Orai ataskaitas ir orų prognozės (METAR, TAF).

turimą stotys yra geltonos ir raudonos taškus žemėlapyje.

Perkelti pele per norėdami pamatyti stoties vardą.

Tada spustelėkite, norėdami matyti oro stebėjimo ir prognozės.

Norėdami pakeisti žemėlapį: spustelėkite ant žalios mygtukų su juodo kryžiaus žemyn,; žalią mygtuką su brūkšneliu, jei norite nutolinti; arba žalių rodyklių gretimoms žemėlapius.


METAR-TAF: